Terminal Aerodrome Forecast
Issued by NWS

Home | Current Version | Previous Version | Text Only | Print | Product List | Glossary On
Versions: 1 2 3 4 5 6 7 8 9 10 11 12 13 14 15 16 17 18
403
FTUS41 KPBZ 251457 AAB
TAFAGC
TAF AMD
KAGC 251457Z 2515/2612 25007KT P6SM FEW015 BKN030 OVC035
     FM251600 22007KT P6SM SCT035
     FM260000 25005KT P6SM VCTS BKN035CB
     FM260400 22006KT P6SM VCSH BKN025=

USA.gov is the U.S. government's official web portal to all federal, state and local government web resources and services.